createdAt,value
2017-06-23T00:01:52.773Z,99.90
2017-06-23T00:04:20.277Z,99.90
2017-06-23T00:06:47.756Z,99.90
2017-06-23T00:09:15.523Z,99.90
2017-06-23T00:11:43.023Z,99.90
2017-06-23T00:14:10.498Z,99.90
2017-06-23T00:16:38.012Z,99.90
2017-06-23T00:19:05.506Z,99.90
2017-06-23T00:21:33.323Z,99.90
2017-06-23T00:24:00.808Z,99.90
2017-06-23T00:26:28.299Z,99.90
2017-06-23T00:28:55.809Z,99.90
2017-06-23T00:31:23.304Z,99.90
2017-06-23T00:33:51.058Z,99.90
2017-06-23T00:36:18.555Z,99.90
2017-06-23T00:38:46.056Z,99.90
2017-06-23T00:41:13.568Z,99.90
2017-06-23T00:43:41.053Z,99.90
2017-06-23T00:46:08.925Z,99.90
2017-06-23T00:48:36.422Z,99.90
2017-06-23T00:51:03.915Z,99.90
2017-06-23T00:53:31.416Z,99.90
2017-06-23T00:55:58.910Z,99.90
2017-06-23T00:58:26.672Z,99.90
2017-06-23T01:00:54.166Z,99.90
2017-06-23T01:03:22.422Z,99.90
2017-06-23T01:05:49.920Z,99.90
2017-06-23T01:08:18.584Z,99.90
2017-06-23T01:10:46.358Z,99.90
2017-06-23T01:13:13.852Z,99.90
2017-06-23T01:15:41.338Z,99.90
2017-06-23T01:18:08.849Z,99.90
2017-06-23T01:20:36.356Z,99.90
2017-06-23T01:23:05.242Z,99.90
2017-06-23T01:25:32.739Z,99.90
2017-06-23T01:28:01.053Z,99.90
2017-06-23T01:30:28.542Z,99.90
2017-06-23T01:32:59.743Z,99.90
2017-06-23T01:35:27.546Z,99.90
2017-06-23T01:37:55.043Z,99.90
2017-06-23T01:40:22.535Z,99.90
2017-06-23T01:42:50.062Z,99.90
2017-06-23T01:45:17.565Z,99.90
2017-06-23T01:47:45.061Z,99.90
2017-06-23T01:50:12.873Z,99.90
2017-06-23T01:52:40.398Z,99.90
2017-06-23T01:55:07.890Z,99.90
2017-06-23T01:57:35.688Z,99.90
2017-06-23T02:00:03.183Z,99.90
2017-06-23T02:02:30.675Z,99.90
2017-06-23T02:04:58.274Z,99.90
2017-06-23T02:07:25.759Z,99.90
2017-06-23T02:09:53.526Z,99.90
2017-06-23T02:12:21.028Z,99.90
2017-06-23T02:14:48.535Z,99.90
2017-06-23T02:17:16.035Z,99.90
2017-06-23T02:19:43.520Z,99.90
2017-06-23T02:22:11.270Z,99.90
2017-06-23T02:24:38.768Z,99.90
2017-06-23T02:27:06.238Z,99.90
2017-06-23T02:29:33.751Z,99.90
2017-06-23T02:32:01.248Z,99.90
2017-06-23T02:34:29.016Z,99.90
2017-06-23T02:36:56.499Z,99.90
2017-06-23T02:39:24.003Z,99.90
2017-06-23T02:41:51.485Z,99.90
2017-06-23T02:44:18.967Z,99.90
2017-06-23T02:46:46.756Z,99.90
2017-06-23T02:49:14.352Z,99.90
2017-06-23T02:51:41.834Z,99.90
2017-06-23T02:54:09.312Z,99.90
2017-06-23T02:56:36.795Z,99.90
2017-06-23T02:59:04.552Z,99.90
2017-06-23T03:01:32.800Z,99.90
2017-06-23T03:04:00.292Z,99.90
2017-06-23T03:06:27.782Z,99.90
2017-06-23T03:08:55.261Z,99.90
2017-06-23T03:11:23.034Z,99.90
2017-06-23T03:13:50.528Z,99.90
2017-06-23T03:16:18.793Z,99.90
2017-06-23T03:18:47.052Z,99.90
2017-06-23T03:21:14.538Z,99.90
2017-06-23T03:23:42.350Z,99.90
2017-06-23T03:26:10.643Z,99.90
2017-06-23T03:28:38.134Z,99.90
2017-06-23T03:31:05.653Z,99.90
2017-06-23T03:33:33.193Z,99.90
2017-06-23T03:36:01.032Z,99.90
2017-06-23T03:38:29.299Z,99.90
2017-06-23T03:40:56.793Z,99.90
2017-06-23T03:43:24.312Z,99.90
2017-06-23T03:45:51.792Z,99.90
2017-06-23T03:48:19.561Z,99.90
2017-06-23T03:50:47.062Z,99.90
2017-06-23T03:53:16.311Z,99.90
2017-06-23T03:55:44.585Z,99.90
2017-06-23T03:58:12.847Z,99.90
2017-06-23T04:00:41.388Z,99.90
2017-06-23T04:03:08.890Z,99.90
2017-06-23T04:05:36.390Z,99.90
2017-06-23T04:08:03.895Z,99.90
2017-06-23T04:10:31.382Z,99.90
2017-06-23T04:12:59.948Z,99.90
2017-06-23T04:15:27.425Z,99.90
2017-06-23T04:17:55.691Z,99.90
2017-06-23T04:20:23.966Z,99.90
2017-06-23T04:22:52.235Z,99.90
2017-06-23T04:25:20.034Z,99.90
2017-06-23T04:27:47.530Z,99.90
2017-06-23T04:30:15.019Z,99.90
2017-06-23T04:32:42.536Z,99.90
2017-06-23T04:35:10.032Z,99.90
2017-06-23T04:37:37.817Z,99.90
2017-06-23T04:40:05.302Z,99.90
2017-06-23T04:42:32.809Z,99.90
2017-06-23T04:45:00.328Z,99.90
2017-06-23T04:47:28.942Z,99.90
2017-06-23T04:49:56.701Z,99.90
2017-06-23T04:52:24.214Z,99.90
2017-06-23T04:54:51.706Z,99.90
2017-06-23T04:57:19.218Z,99.90
2017-06-23T04:59:48.217Z,99.90
2017-06-23T05:02:15.982Z,99.90
2017-06-23T05:04:43.499Z,99.90
2017-06-23T05:07:11.025Z,99.90
2017-06-23T05:09:38.535Z,99.90
2017-06-23T05:12:06.045Z,99.90
2017-06-23T05:14:33.972Z,99.90
2017-06-23T05:17:01.476Z,99.90
2017-06-23T05:19:28.961Z,99.90
2017-06-23T05:21:56.479Z,99.90
2017-06-23T05:24:23.970Z,99.90
2017-06-23T05:26:51.741Z,99.90
2017-06-23T05:29:19.243Z,99.90
2017-06-23T05:31:46.790Z,99.90
2017-06-23T05:34:14.298Z,99.90
2017-06-23T05:36:41.793Z,99.90
2017-06-23T05:39:09.558Z,99.90
2017-06-23T05:41:37.040Z,99.90
2017-06-23T05:44:04.548Z,99.90
2017-06-23T05:46:32.037Z,99.90
2017-06-23T05:48:59.535Z,99.90
2017-06-23T05:51:28.140Z,99.90
2017-06-23T05:53:55.643Z,99.90
2017-06-23T05:56:23.135Z,99.90
2017-06-23T05:58:51.432Z,99.90
2017-06-23T06:01:19.015Z,99.90
2017-06-23T06:03:46.791Z,99.90
2017-06-23T06:06:14.293Z,99.90
2017-06-23T06:08:42.919Z,99.90
2017-06-23T06:11:10.406Z,99.90
2017-06-23T06:13:37.905Z,99.90
2017-06-23T06:16:05.714Z,99.90
2017-06-23T06:18:33.212Z,99.90
2017-06-23T06:21:00.706Z,99.90
2017-06-23T06:23:28.215Z,99.90
2017-06-23T06:25:55.695Z,99.90
2017-06-23T06:28:23.459Z,99.90
2017-06-23T06:30:52.099Z,99.90
2017-06-23T06:33:19.590Z,99.90
2017-06-23T06:35:47.102Z,99.90
2017-06-23T06:38:14.594Z,99.90
2017-06-23T06:40:42.416Z,99.90
2017-06-23T06:43:09.910Z,99.90
2017-06-23T06:45:37.390Z,99.90
2017-06-23T06:48:04.881Z,99.90
2017-06-23T06:50:32.365Z,99.90
2017-06-23T06:53:01.279Z,99.90
2017-06-23T06:55:28.783Z,99.90
2017-06-23T06:57:56.267Z,99.90
2017-06-23T07:00:23.793Z,99.90
2017-06-23T07:02:51.287Z,99.90
2017-06-23T07:05:19.125Z,99.90
2017-06-23T07:07:47.395Z,99.90
2017-06-23T07:10:15.563Z,99.90
2017-06-23T07:12:43.055Z,99.90
2017-06-23T07:15:10.547Z,99.90
2017-06-23T07:17:38.025Z,99.90
2017-06-23T07:20:05.799Z,99.90
2017-06-23T07:22:33.319Z,99.90
2017-06-23T07:25:00.811Z,99.90
2017-06-23T07:27:28.325Z,99.90
2017-06-23T07:29:55.855Z,99.90
2017-06-23T07:32:24.132Z,99.90
2017-06-23T07:34:51.631Z,99.90
2017-06-23T07:37:19.385Z,99.90
2017-06-23T07:39:46.888Z,99.90
2017-06-23T07:42:14.384Z,99.90
2017-06-23T07:44:42.640Z,99.90
2017-06-23T07:47:10.159Z,99.90
2017-06-23T07:49:37.989Z,99.90
2017-06-23T07:52:05.480Z,99.90
2017-06-23T07:54:32.961Z,99.90
2017-06-23T07:57:00.466Z,99.90
2017-06-23T07:59:28.724Z,99.90
2017-06-23T08:01:56.500Z,99.90
2017-06-23T08:04:23.981Z,99.90
2017-06-23T08:06:51.482Z,99.90
2017-06-23T08:09:19.030Z,99.90
2017-06-23T08:11:46.501Z,99.90
2017-06-23T08:14:14.328Z,99.90
2017-06-23T08:16:41.817Z,99.90
2017-06-23T08:19:09.306Z,99.90
2017-06-23T08:21:36.815Z,99.90
2017-06-23T08:24:04.304Z,99.90
2017-06-23T08:26:32.065Z,99.90
2017-06-23T08:29:00.716Z,99.90
2017-06-23T08:31:28.185Z,99.90
2017-06-23T08:33:55.679Z,99.90
2017-06-23T08:36:23.161Z,99.90
2017-06-23T08:38:50.948Z,99.90
2017-06-23T08:41:18.442Z,99.90
2017-06-23T08:43:45.936Z,99.90
2017-06-23T08:46:13.442Z,99.90
2017-06-23T08:48:40.939Z,99.90
2017-06-23T08:51:08.827Z,99.90
2017-06-23T08:53:36.318Z,99.90
2017-06-23T08:56:04.955Z,99.90
2017-06-23T08:58:33.614Z,99.90
2017-06-23T09:01:01.121Z,99.90
2017-06-23T09:03:29.662Z,99.90
2017-06-23T09:05:57.132Z,99.90
2017-06-23T09:08:24.647Z,99.90
2017-06-23T09:10:52.153Z,98.60
2017-06-23T09:13:19.648Z,98.70
2017-06-23T09:15:48.238Z,99.40
2017-06-23T09:18:15.738Z,99.20
2017-06-23T09:20:43.214Z,98.40
2017-06-23T09:23:10.717Z,98.70
2017-06-23T09:25:38.209Z,97.20
2017-06-23T09:28:05.964Z,97.80
2017-06-23T09:30:33.460Z,97.10
2017-06-23T09:33:00.954Z,96.20
2017-06-23T09:35:29.216Z,96.40
2017-06-23T09:37:57.842Z,95.30
2017-06-23T09:40:25.697Z,96.30
2017-06-23T09:42:53.183Z,95.90
2017-06-23T09:47:49.560Z,96.60
2017-06-23T09:50:17.039Z,96.60
2017-06-23T09:52:45.565Z,95.80
2017-06-23T09:55:13.037Z,95.70
2017-06-23T09:57:40.528Z,95.20
2017-06-23T10:00:08.037Z,93.80
2017-06-23T10:02:35.515Z,93.10
2017-06-23T10:05:04.415Z,94.60
2017-06-23T10:07:31.895Z,94.70
2017-06-23T10:09:59.375Z,94.50
2017-06-23T10:12:27.638Z,94.70
2017-06-23T10:14:56.265Z,94.10
2017-06-23T10:17:24.116Z,94.40
2017-06-23T10:19:51.595Z,93.80
2017-06-23T10:22:19.092Z,92.90
2017-06-23T10:24:46.590Z,91.70
2017-06-23T10:27:14.101Z,91.30
2017-06-23T10:29:41.924Z,93.30
2017-06-23T10:32:09.424Z,92.40
2017-06-23T10:34:38.041Z,93.90
2017-06-23T10:37:06.311Z,94.10
2017-06-23T10:39:33.798Z,93.70
2017-06-23T10:42:01.298Z,93.50
2017-06-23T10:44:28.797Z,96.70
2017-06-23T10:46:57.715Z,92.90
2017-06-23T10:49:25.213Z,93.00
2017-06-23T10:51:52.713Z,93.50
2017-06-23T10:54:20.219Z,93.80
2017-06-23T10:56:47.696Z,93.50
2017-06-23T10:59:15.207Z,93.10
2017-06-23T11:01:43.455Z,93.70
2017-06-23T11:04:11.241Z,93.90
2017-06-23T11:06:38.736Z,92.70
2017-06-23T11:09:06.246Z,93.30
2017-06-23T11:11:34.519Z,92.50
2017-06-23T11:14:02.795Z,92.20
2017-06-23T11:16:30.578Z,92.20
2017-06-23T11:18:58.079Z,91.50
2017-06-23T11:21:25.595Z,91.60
2017-06-23T11:23:53.864Z,91.30
2017-06-23T11:26:21.476Z,91.40
2017-06-23T11:28:49.274Z,91.40
2017-06-23T11:31:16.769Z,90.90
2017-06-23T11:33:44.275Z,91.30
2017-06-23T11:36:11.789Z,92.00
2017-06-23T11:41:08.432Z,91.10
2017-06-23T11:43:35.942Z,90.30
2017-06-23T11:46:03.463Z,89.50
2017-06-23T11:48:30.989Z,90.70
2017-06-23T11:50:58.497Z,90.40
2017-06-23T11:53:26.368Z,90.50
2017-06-23T11:55:53.861Z,90.20
2017-06-23T11:58:21.342Z,91.00
2017-06-23T12:00:48.852Z,90.30
2017-06-23T12:03:16.365Z,89.70
2017-06-23T12:05:44.964Z,90.00
2017-06-23T12:08:12.445Z,89.90
2017-06-23T12:10:39.961Z,88.30
2017-06-23T12:13:08.236Z,89.80
2017-06-23T12:15:35.729Z,89.80
2017-06-23T12:18:03.226Z,89.70
2017-06-23T12:20:31.057Z,92.60
2017-06-23T12:22:58.556Z,90.20
2017-06-23T12:25:26.042Z,92.30
2017-06-23T12:27:54.322Z,90.50
2017-06-23T12:30:22.587Z,89.10
2017-06-23T12:32:50.403Z,89.10
2017-06-23T12:35:17.915Z,90.20
2017-06-23T12:37:45.416Z,90.30
2017-06-23T12:40:12.933Z,90.40
2017-06-23T12:42:40.429Z,89.70
2017-06-23T12:47:37.107Z,90.00
2017-06-23T12:50:04.590Z,95.20
2017-06-23T12:52:32.111Z,90.20
2017-06-23T12:54:59.604Z,90.50
2017-06-23T12:57:27.422Z,90.20
2017-06-23T12:59:54.911Z,89.50
2017-06-23T13:02:23.544Z,89.40
2017-06-23T13:04:51.032Z,89.80
2017-06-23T13:07:18.558Z,88.90
2017-06-23T13:09:47.472Z,89.60
2017-06-23T13:12:16.133Z,90.10
2017-06-23T13:14:43.619Z,90.20
2017-06-23T13:17:12.234Z,89.20
2017-06-23T13:19:39.723Z,89.60
2017-06-23T13:22:07.512Z,90.40
2017-06-23T13:24:35.769Z,90.90
2017-06-23T13:27:04.384Z,90.90
2017-06-23T13:29:32.646Z,90.80
2017-06-23T13:32:00.181Z,90.70
2017-06-23T13:34:28.004Z,90.70
2017-06-23T13:36:55.485Z,90.40
2017-06-23T13:39:22.975Z,90.30
2017-06-23T13:41:50.486Z,90.40
2017-06-23T13:44:17.980Z,90.40
2017-06-23T13:46:45.784Z,90.60
2017-06-23T13:49:13.265Z,98.90
2017-06-23T13:51:40.763Z,90.30
2017-06-23T13:54:09.414Z,89.40
2017-06-23T13:56:36.911Z,90.00
2017-06-23T13:59:04.676Z,89.30
2017-06-23T14:01:32.173Z,89.80
2017-06-23T14:03:59.662Z,90.00
2017-06-23T14:06:28.287Z,90.40
2017-06-23T14:08:55.781Z,90.60
2017-06-23T14:11:23.681Z,91.10
2017-06-23T14:13:51.174Z,91.20
2017-06-23T14:16:18.691Z,91.40
2017-06-23T14:18:46.192Z,91.30
2017-06-23T14:21:13.684Z,91.50
2017-06-23T14:23:42.241Z,91.70
2017-06-23T14:26:10.880Z,92.20
2017-06-23T14:28:39.503Z,92.10
2017-06-23T14:31:08.130Z,92.00
2017-06-23T14:36:04.769Z,92.40
2017-06-23T14:38:32.281Z,92.80
2017-06-23T14:40:59.772Z,92.50
2017-06-23T14:43:27.277Z,91.60
2017-06-23T14:45:54.753Z,91.20
2017-06-23T14:48:23.662Z,90.80
2017-06-23T14:50:51.206Z,91.00
2017-06-23T14:53:18.681Z,90.60
2017-06-23T14:55:46.180Z,90.00
2017-06-23T14:58:14.451Z,89.30
2017-06-23T15:00:42.329Z,89.20
2017-06-23T15:03:10.587Z,87.50
2017-06-23T15:05:38.107Z,87.40
2017-06-23T15:08:05.628Z,87.90
2017-06-23T15:10:33.154Z,86.90
2017-06-23T15:13:00.949Z,87.10
2017-06-23T15:15:29.225Z,87.50
2017-06-23T15:20:25.612Z,86.50
2017-06-23T15:22:53.112Z,86.90
2017-06-23T15:25:21.036Z,86.10
2017-06-23T15:27:48.578Z,86.70
2017-06-23T15:30:16.087Z,86.70
2017-06-23T15:32:43.584Z,88.10
2017-06-23T15:35:11.850Z,87.10
2017-06-23T15:37:39.627Z,87.00
2017-06-23T15:40:07.125Z,87.00
2017-06-23T15:42:34.611Z,87.60
2017-06-23T15:45:02.134Z,86.80
2017-06-23T15:47:29.618Z,87.10
2017-06-23T15:49:57.386Z,86.60
2017-06-23T15:52:26.022Z,87.10
2017-06-23T15:54:53.525Z,87.50
2017-06-23T15:57:21.054Z,88.20
2017-06-23T15:59:49.676Z,88.50
2017-06-23T16:02:17.467Z,88.90
2017-06-23T16:04:44.945Z,89.00
2017-06-23T16:07:12.436Z,89.70
2017-06-23T16:09:39.941Z,89.40
2017-06-23T16:12:07.466Z,89.40
2017-06-23T16:14:35.239Z,88.80
2017-06-23T16:17:02.717Z,88.40
2017-06-23T16:19:30.202Z,88.90
2017-06-23T16:21:57.730Z,88.30
2017-06-23T16:24:25.223Z,88.30
2017-06-23T16:26:54.173Z,88.00
2017-06-23T16:29:21.653Z,88.50
2017-06-23T16:31:49.157Z,88.20
2017-06-23T16:34:16.664Z,87.60
2017-06-23T16:36:44.155Z,87.30
2017-06-23T16:39:11.940Z,85.00
2017-06-23T16:41:39.425Z,85.80
2017-06-23T16:44:06.898Z,85.70
2017-06-23T16:46:34.395Z,85.30
2017-06-23T16:49:01.900Z,85.30
2017-06-23T16:51:30.843Z,85.30
2017-06-23T16:53:58.347Z,85.80
2017-06-23T16:56:25.830Z,85.60
2017-06-23T16:58:53.347Z,85.70
2017-06-23T17:01:20.857Z,85.70
2017-06-23T17:03:48.663Z,85.20
2017-06-23T17:06:16.172Z,85.90
2017-06-23T17:08:43.663Z,86.40
2017-06-23T17:11:11.194Z,87.10
2017-06-23T17:13:38.688Z,87.20
2017-06-23T17:16:06.460Z,86.70
2017-06-23T17:18:33.942Z,86.50
2017-06-23T17:21:01.429Z,87.20
2017-06-23T17:23:28.927Z,87.40
2017-06-23T17:25:57.203Z,87.80
2017-06-23T17:28:25.821Z,87.50
2017-06-23T17:30:53.307Z,87.70
2017-06-23T17:33:20.800Z,87.70
2017-06-23T17:35:48.308Z,87.80
2017-06-23T17:38:15.813Z,87.50
2017-06-23T17:40:43.584Z,87.60
2017-06-23T17:43:11.831Z,89.20
2017-06-23T17:45:39.348Z,88.70
2017-06-23T17:48:06.856Z,88.00
2017-06-23T17:50:34.348Z,89.00
2017-06-23T17:53:02.103Z,89.00
2017-06-23T17:55:30.351Z,89.10
2017-06-23T17:57:57.840Z,89.10
2017-06-23T18:00:26.102Z,89.10
2017-06-23T18:02:53.595Z,89.30
2017-06-23T18:05:21.091Z,89.00
2017-06-23T18:07:48.594Z,89.80
2017-06-23T18:10:16.098Z,89.50
2017-06-23T18:12:43.588Z,89.70
2017-06-23T18:15:11.398Z,89.40
2017-06-23T18:17:38.898Z,89.70
2017-06-23T18:20:06.426Z,89.10
2017-06-23T18:22:33.928Z,89.80
2017-06-23T18:25:01.421Z,89.90
2017-06-23T18:27:29.956Z,90.40
2017-06-23T18:29:57.455Z,90.40
2017-06-23T18:32:24.933Z,90.40
2017-06-23T18:34:52.442Z,90.10
2017-06-23T18:37:19.928Z,90.60
2017-06-23T18:39:48.541Z,90.90
2017-06-23T18:42:16.057Z,90.80
2017-06-23T18:44:43.569Z,90.70
2017-06-23T18:47:11.081Z,90.70
2017-06-23T18:49:38.586Z,90.90
2017-06-23T18:52:06.393Z,91.20
2017-06-23T18:54:33.883Z,91.20
2017-06-23T18:57:01.362Z,91.00
2017-06-23T18:59:28.858Z,91.10
2017-06-23T19:01:56.368Z,91.30
2017-06-23T19:04:24.279Z,91.50
2017-06-23T19:06:51.760Z,91.30
2017-06-23T19:09:19.271Z,91.40
2017-06-23T19:11:46.789Z,91.30
2017-06-23T19:14:14.311Z,91.50
2017-06-23T19:16:42.178Z,91.70
2017-06-23T19:19:09.676Z,92.60
2017-06-23T19:21:37.183Z,92.70
2017-06-23T19:24:04.711Z,93.00
2017-06-23T19:26:32.224Z,93.00
2017-06-23T19:28:59.718Z,93.00
2017-06-23T19:31:27.202Z,92.80
2017-06-23T19:33:55.813Z,93.30
2017-06-23T19:36:23.332Z,93.40
2017-06-23T19:38:50.821Z,93.00
2017-06-23T19:41:18.336Z,93.40
2017-06-23T19:43:45.841Z,93.60
2017-06-23T19:46:13.630Z,93.70
2017-06-23T19:48:41.172Z,93.80
2017-06-23T19:51:08.667Z,93.90
2017-06-23T19:53:36.186Z,94.20
2017-06-23T19:56:03.683Z,94.30
2017-06-23T19:58:31.522Z,94.80
2017-06-23T20:00:59.019Z,95.00
2017-06-23T20:03:26.510Z,94.60
2017-06-23T20:05:54.022Z,94.50
2017-06-23T20:08:21.535Z,94.90
2017-06-23T20:10:49.294Z,95.40
2017-06-23T20:13:16.827Z,95.10
2017-06-23T20:15:44.302Z,94.70
2017-06-23T20:18:11.820Z,94.60
2017-06-23T20:20:39.329Z,94.60
2017-06-23T20:23:07.207Z,94.70
2017-06-23T20:25:34.705Z,94.60
2017-06-23T20:28:02.202Z,94.70
2017-06-23T20:30:29.689Z,94.70
2017-06-23T20:32:57.212Z,95.00
2017-06-23T20:35:24.991Z,95.20
2017-06-23T20:37:52.489Z,94.90
2017-06-23T20:40:20.014Z,95.30
2017-06-23T20:42:48.296Z,95.80
2017-06-23T20:45:15.795Z,95.80
2017-06-23T20:47:43.586Z,95.70
2017-06-23T20:50:11.081Z,95.70
2017-06-23T20:52:38.604Z,96.20
2017-06-23T20:55:06.165Z,96.30
2017-06-23T20:57:33.681Z,96.40
2017-06-23T21:00:01.181Z,96.30
2017-06-23T21:02:28.669Z,96.40
2017-06-23T21:04:56.467Z,96.40
2017-06-23T21:07:23.972Z,96.70
2017-06-23T21:09:51.467Z,96.90
2017-06-23T21:12:18.979Z,97.10
2017-06-23T21:14:46.503Z,97.30
2017-06-23T21:17:14.357Z,97.30
2017-06-23T21:19:41.880Z,97.40
2017-06-23T21:22:09.388Z,97.30
2017-06-23T21:24:36.898Z,97.40
2017-06-23T21:27:04.393Z,97.30
2017-06-23T21:29:32.276Z,97.30
2017-06-23T21:31:59.795Z,97.30
2017-06-23T21:34:28.064Z,97.10
2017-06-23T21:36:55.573Z,96.80
2017-06-23T21:39:23.070Z,96.90
2017-06-23T21:41:52.381Z,96.80
2017-06-23T21:44:19.862Z,96.50
2017-06-23T21:46:47.767Z,96.80
2017-06-23T21:49:15.285Z,96.60
2017-06-23T21:51:42.766Z,96.30
2017-06-23T21:54:10.290Z,95.80
2017-06-23T21:56:37.796Z,95.70
2017-06-23T21:59:05.655Z,95.80
2017-06-23T22:01:33.160Z,95.60
2017-06-23T22:04:01.602Z,95.50
2017-06-23T22:06:29.105Z,95.70
2017-06-23T22:08:56.591Z,95.30
2017-06-23T22:11:24.378Z,95.30
2017-06-23T22:13:51.854Z,95.20
2017-06-23T22:16:19.344Z,95.40
2017-06-23T22:18:46.862Z,95.10
2017-06-23T22:21:14.367Z,95.00
2017-06-23T22:23:42.163Z,95.20
2017-06-23T22:26:09.668Z,94.90
2017-06-23T22:28:37.178Z,95.20
2017-06-23T22:31:04.694Z,95.50
2017-06-23T22:33:32.174Z,95.30
2017-06-23T22:35:59.653Z,95.40
2017-06-23T22:38:28.208Z,96.00
2017-06-23T22:40:55.708Z,95.80
2017-06-23T22:43:23.214Z,96.20
2017-06-23T22:45:51.017Z,97.20
2017-06-23T22:48:18.508Z,97.40
2017-06-23T22:50:46.015Z,97.60
2017-06-23T22:53:13.520Z,97.30
2017-06-23T22:55:41.015Z,97.40
2017-06-23T22:58:08.787Z,97.50
2017-06-23T23:00:36.280Z,97.20
2017-06-23T23:03:04.557Z,96.50
2017-06-23T23:05:32.054Z,96.50
2017-06-23T23:07:59.545Z,95.70
2017-06-23T23:10:27.441Z,95.50
2017-06-23T23:12:55.702Z,95.90
2017-06-23T23:15:23.201Z,95.80
2017-06-23T23:17:50.682Z,96.00
2017-06-23T23:20:18.161Z,96.00
2017-06-23T23:22:45.930Z,95.70
2017-06-23T23:25:13.408Z,96.00
2017-06-23T23:27:40.965Z,96.60
2017-06-23T23:30:08.471Z,96.70
2017-06-23T23:32:35.954Z,96.80
2017-06-23T23:35:03.742Z,97.00
2017-06-23T23:37:31.212Z,96.80
2017-06-23T23:39:58.697Z,97.00
2017-06-23T23:42:26.196Z,96.80
2017-06-23T23:44:53.693Z,97.70
2017-06-23T23:47:22.269Z,97.40
2017-06-23T23:49:49.750Z,97.20
2017-06-23T23:52:18.012Z,97.00
2017-06-23T23:54:46.260Z,97.00
2017-06-23T23:57:13.734Z,97.00
2017-06-23T23:59:41.530Z,97.90
